createdAt,value
2023-01-19T00:01:50.874Z,24.30
2023-01-19T00:04:21.761Z,26.70
2023-01-19T00:06:52.141Z,24.30
2023-01-19T00:09:22.884Z,26.00
2023-01-19T00:14:23.292Z,22.60
2023-01-19T00:21:53.053Z,22.20
2023-01-19T00:24:23.617Z,22.60
2023-01-19T00:26:53.999Z,23.50
2023-01-19T00:29:24.282Z,24.70
2023-01-19T00:31:54.714Z,24.30
2023-01-19T00:34:24.997Z,25.10
2023-01-19T00:36:55.458Z,24.00
2023-01-19T00:39:26.244Z,28.90
2023-01-19T00:42:14.077Z,28.30
2023-01-19T00:44:44.503Z,27.80
2023-01-19T00:47:15.150Z,30.00
2023-01-19T00:49:45.456Z,30.80
2023-01-19T00:52:15.810Z,28.30
2023-01-19T00:54:46.904Z,27.40
2023-01-19T00:57:18.866Z,26.90
2023-01-19T00:59:49.316Z,25.80
2023-01-19T01:02:19.852Z,25.40
2023-01-19T01:04:54.513Z,26.70
2023-01-19T01:07:25.065Z,25.30
2023-01-19T01:09:56.465Z,27.10
2023-01-19T01:12:26.970Z,24.90
2023-01-19T01:14:57.632Z,24.30
2023-01-19T01:17:27.949Z,25.00
2023-01-19T01:19:58.877Z,25.10
2023-01-19T01:22:29.520Z,25.10
2023-01-19T01:25:00.191Z,26.50
2023-01-19T01:27:30.476Z,26.10
2023-01-19T01:30:00.822Z,26.80
2023-01-19T01:32:31.730Z,27.90
2023-01-19T01:35:02.044Z,26.50
2023-01-19T01:37:32.770Z,28.20
2023-01-19T01:40:03.685Z,28.00
2023-01-19T01:42:35.014Z,26.60
2023-01-19T01:45:08.215Z,27.30
2023-01-19T01:47:43.653Z,24.80
2023-01-19T01:50:16.660Z,25.10
2023-01-19T01:53:06.412Z,25.70
2023-01-19T01:55:40.870Z,25.60
2023-01-19T01:58:12.506Z,24.30
2023-01-19T02:01:00.651Z,25.90
2023-01-19T02:03:33.148Z,23.50
2023-01-19T02:06:07.800Z,25.70
2023-01-19T02:08:59.946Z,25.90
2023-01-19T02:11:48.586Z,27.40
2023-01-19T02:14:19.225Z,35.10
2023-01-19T02:16:49.848Z,31.80
2023-01-19T02:19:26.130Z,29.20
2023-01-19T02:22:01.519Z,28.90
2023-01-19T02:24:32.386Z,26.70
2023-01-19T02:27:03.194Z,25.40
2023-01-19T02:29:34.439Z,31.70
2023-01-19T02:32:06.552Z,32.40
2023-01-19T02:34:37.163Z,30.40
2023-01-19T02:37:11.662Z,32.50
2023-01-19T02:39:45.126Z,32.90
2023-01-19T02:42:18.355Z,31.40
2023-01-19T02:44:50.949Z,31.60
2023-01-19T02:47:21.532Z,32.50
2023-01-19T02:49:58.174Z,30.30
2023-01-19T02:52:29.577Z,29.10
2023-01-19T02:57:47.728Z,28.30
2023-01-19T03:00:26.343Z,27.40
2023-01-19T03:03:09.415Z,28.50
2023-01-19T03:05:54.248Z,27.70
2023-01-19T03:08:34.024Z,27.80
2023-01-19T03:11:06.501Z,26.20
2023-01-19T03:13:45.024Z,25.10
2023-01-19T03:16:19.187Z,25.30
2023-01-19T03:18:54.859Z,27.20
2023-01-19T03:21:29.108Z,25.30
2023-01-19T03:24:03.549Z,24.40
2023-01-19T03:26:37.716Z,24.10
2023-01-19T03:29:09.727Z,23.70
2023-01-19T03:31:41.144Z,25.20
2023-01-19T03:34:14.008Z,25.40
2023-01-19T03:36:46.875Z,24.90
2023-01-19T03:39:20.771Z,24.50
2023-01-19T03:41:53.754Z,24.90
2023-01-19T03:44:24.378Z,24.10
2023-01-19T03:46:55.044Z,24.20
2023-01-19T03:49:25.945Z,20.70
2023-01-19T03:51:58.604Z,22.30
2023-01-19T03:54:29.297Z,23.30
2023-01-19T03:56:59.751Z,20.00
2023-01-19T03:59:30.390Z,20.60
2023-01-19T04:02:01.081Z,21.40
2023-01-19T04:04:31.792Z,21.30
2023-01-19T04:07:02.515Z,21.80
2023-01-19T04:09:33.881Z,20.40
2023-01-19T04:12:07.678Z,21.30
2023-01-19T04:14:38.700Z,22.00
2023-01-19T04:17:10.124Z,22.30
2023-01-19T04:19:40.787Z,22.90
2023-01-19T04:22:11.621Z,26.50
2023-01-19T04:24:42.456Z,24.70
2023-01-19T04:27:15.281Z,23.80
2023-01-19T04:29:46.823Z,23.50
2023-01-19T04:32:18.081Z,25.20
2023-01-19T04:34:49.100Z,25.40
2023-01-19T04:37:20.883Z,24.70
2023-01-19T04:39:51.942Z,21.80
2023-01-19T04:42:22.905Z,22.70
2023-01-19T04:44:53.821Z,21.20
2023-01-19T04:47:24.481Z,21.30
2023-01-19T04:49:55.170Z,21.90
2023-01-19T04:52:26.453Z,20.90
2023-01-19T04:54:57.029Z,20.90
2023-01-19T04:57:27.765Z,20.20
2023-01-19T04:59:58.631Z,19.20
2023-01-19T05:02:31.606Z,20.50
2023-01-19T05:05:03.019Z,20.20
2023-01-19T05:07:33.368Z,22.90
2023-01-19T05:10:03.895Z,25.30
2023-01-19T05:12:34.767Z,23.60
2023-01-19T05:15:10.682Z,22.30
2023-01-19T05:17:41.342Z,21.40
2023-01-19T05:20:16.271Z,24.20
2023-01-19T05:22:50.918Z,23.00
2023-01-19T05:25:22.043Z,23.10
2023-01-19T05:30:22.334Z,22.90
2023-01-19T05:32:52.815Z,23.30
2023-01-19T05:35:35.322Z,21.60
2023-01-19T05:38:06.862Z,23.40
2023-01-19T05:40:37.348Z,23.30
2023-01-19T05:43:08.359Z,23.30
2023-01-19T05:45:39.206Z,23.60
2023-01-19T05:48:10.483Z,24.70
2023-01-19T05:50:41.537Z,23.60
2023-01-19T05:53:13.694Z,24.40
2023-01-19T05:55:44.764Z,23.90
2023-01-19T05:58:15.295Z,24.60
2023-01-19T06:00:45.733Z,26.20
2023-01-19T06:03:16.135Z,25.80
2023-01-19T06:05:46.587Z,23.30
2023-01-19T06:08:17.386Z,25.80
2023-01-19T06:10:48.414Z,23.30
2023-01-19T06:13:19.429Z,25.30
2023-01-19T06:15:50.047Z,24.20
2023-01-19T06:18:20.525Z,24.80
2023-01-19T06:20:52.251Z,22.20
2023-01-19T06:23:22.895Z,23.60
2023-01-19T06:25:53.431Z,23.30
2023-01-19T06:28:24.247Z,22.70
2023-01-19T06:30:56.076Z,23.60
2023-01-19T06:33:28.034Z,22.40
2023-01-19T06:35:58.636Z,21.50
2023-01-19T06:40:59.448Z,22.30
2023-01-19T06:43:31.017Z,25.20
2023-01-19T06:46:02.129Z,24.00
2023-01-19T06:48:32.640Z,24.20
2023-01-19T06:51:03.351Z,24.60
2023-01-19T06:53:33.748Z,26.80
2023-01-19T06:56:04.842Z,22.30
2023-01-19T06:58:36.019Z,26.70
2023-01-19T07:01:07.864Z,29.20
2023-01-19T07:03:38.752Z,29.80
2023-01-19T07:06:09.983Z,34.50
2023-01-19T07:08:40.736Z,34.60
2023-01-19T07:11:25.879Z,36.40
2023-01-19T07:14:03.827Z,40.20
2023-01-19T07:16:34.212Z,40.20
2023-01-19T07:19:04.740Z,41.00
2023-01-19T07:21:35.362Z,43.70
2023-01-19T07:24:06.269Z,43.50
2023-01-19T07:26:36.731Z,44.80
2023-01-19T07:29:07.646Z,46.30
2023-01-19T07:31:38.106Z,47.10
2023-01-19T07:34:08.380Z,47.20
2023-01-19T07:36:39.130Z,50.90
2023-01-19T07:39:10.009Z,50.50
2023-01-19T07:41:40.989Z,55.40
2023-01-19T07:44:15.090Z,53.30
2023-01-19T07:46:45.518Z,52.30
2023-01-19T07:49:16.157Z,54.70
2023-01-19T07:51:46.983Z,54.90
2023-01-19T07:54:17.433Z,53.50
2023-01-19T07:56:47.815Z,55.90
2023-01-19T07:59:18.130Z,53.80
2023-01-19T08:01:49.244Z,50.60
2023-01-19T08:04:20.207Z,47.20
2023-01-19T08:06:50.573Z,49.10
2023-01-19T08:09:21.191Z,47.90
2023-01-19T08:11:51.495Z,45.50
2023-01-19T08:14:21.685Z,43.90
2023-01-19T08:19:21.788Z,34.50
2023-01-19T08:21:52.146Z,40.50
2023-01-19T08:24:25.689Z,39.40
2023-01-19T08:27:03.495Z,37.70
2023-01-19T08:29:35.343Z,38.00
2023-01-19T08:32:07.256Z,36.50
2023-01-19T08:34:37.917Z,35.60
2023-01-19T08:37:08.437Z,35.60
2023-01-19T08:39:38.765Z,35.70
2023-01-19T08:42:09.695Z,36.60
2023-01-19T08:44:49.678Z,34.30
2023-01-19T08:47:27.920Z,33.80
2023-01-19T08:49:58.732Z,34.80
2023-01-19T08:52:30.530Z,34.00
2023-01-19T08:55:01.571Z,32.40
2023-01-19T08:57:32.019Z,31.10
2023-01-19T09:00:04.487Z,33.60
2023-01-19T09:02:35.461Z,28.60
2023-01-19T09:05:07.338Z,28.90
2023-01-19T09:07:38.115Z,27.30
2023-01-19T09:10:11.416Z,28.40
2023-01-19T09:12:43.539Z,28.00
2023-01-19T09:15:15.079Z,25.30
2023-01-19T09:17:45.464Z,33.00
2023-01-19T09:20:15.351Z,30.90
2023-01-19T09:22:47.322Z,32.10
2023-01-19T09:25:17.879Z,31.10
2023-01-19T09:27:48.278Z,30.70
2023-01-19T09:30:19.804Z,33.00
2023-01-19T09:32:50.266Z,32.50
2023-01-19T09:35:21.788Z,32.10
2023-01-19T09:37:52.515Z,30.80
2023-01-19T09:40:23.073Z,29.70
2023-01-19T09:42:59.071Z,29.70
2023-01-19T09:45:35.468Z,28.40
2023-01-19T09:48:11.611Z,29.00
2023-01-19T09:50:46.469Z,30.00
2023-01-19T09:53:21.293Z,27.20
2023-01-19T09:55:51.700Z,29.80
2023-01-19T10:00:56.340Z,28.70
2023-01-19T10:03:27.441Z,26.70
2023-01-19T10:06:03.314Z,25.90
2023-01-19T10:08:38.604Z,26.60
2023-01-19T10:11:18.288Z,21.00
2023-01-19T10:13:52.126Z,25.80
2023-01-19T10:16:31.374Z,28.60
2023-01-19T10:19:12.201Z,27.00
2023-01-19T10:21:44.161Z,28.80
2023-01-19T10:24:20.430Z,32.00
2023-01-19T10:26:52.628Z,31.30
2023-01-19T10:29:25.108Z,32.30
2023-01-19T10:32:02.296Z,30.00
2023-01-19T10:34:33.429Z,29.80
2023-01-19T10:37:06.492Z,28.20
2023-01-19T10:39:38.736Z,29.30
2023-01-19T10:42:16.100Z,27.70
2023-01-19T10:44:46.975Z,26.70
2023-01-19T10:47:19.038Z,25.20
2023-01-19T10:49:50.427Z,24.70
2023-01-19T10:52:28.682Z,25.00
2023-01-19T10:54:59.852Z,25.40
2023-01-19T10:57:33.067Z,25.40
2023-01-19T11:00:04.899Z,23.90
2023-01-19T11:02:36.289Z,23.80
2023-01-19T11:05:23.629Z,24.90
2023-01-19T11:07:54.176Z,24.20
2023-01-19T11:10:26.507Z,29.20
2023-01-19T11:13:07.366Z,26.90
2023-01-19T11:15:43.654Z,26.80
2023-01-19T11:18:28.111Z,26.30
2023-01-19T11:21:00.829Z,25.20
2023-01-19T11:23:33.599Z,26.20
2023-01-19T11:26:06.890Z,25.80
2023-01-19T11:28:38.636Z,26.50
2023-01-19T11:31:20.411Z,27.20
2023-01-19T11:33:52.702Z,30.20
2023-01-19T11:36:24.942Z,28.80
2023-01-19T11:38:57.555Z,28.80
2023-01-19T11:41:31.082Z,28.60
2023-01-19T11:44:10.527Z,26.90
2023-01-19T11:46:44.079Z,30.80
2023-01-19T11:49:19.886Z,28.90
2023-01-19T11:51:57.410Z,32.60
2023-01-19T11:54:34.891Z,30.00
2023-01-19T11:57:13.370Z,31.60
2023-01-19T11:59:43.731Z,32.00
2023-01-19T12:02:22.323Z,31.70
2023-01-19T12:04:54.998Z,32.70
2023-01-19T12:07:29.602Z,32.10
2023-01-19T12:10:15.243Z,33.70
2023-01-19T12:12:46.591Z,31.90
2023-01-19T12:15:36.290Z,30.70
2023-01-19T12:18:13.739Z,29.20
2023-01-19T12:20:47.249Z,27.80
2023-01-19T12:23:26.338Z,31.20
2023-01-19T12:26:07.258Z,30.30
2023-01-19T12:28:40.251Z,26.50
2023-01-19T12:31:11.295Z,31.60
2023-01-19T12:33:42.255Z,31.50
2023-01-19T12:36:36.645Z,31.50
2023-01-19T12:39:19.462Z,32.70
2023-01-19T12:41:50.948Z,34.90
2023-01-19T12:44:31.235Z,32.00
2023-01-19T12:47:19.733Z,30.40
2023-01-19T12:49:52.554Z,33.00
2023-01-19T12:52:27.866Z,32.80
2023-01-19T12:55:02.787Z,32.90
2023-01-19T12:57:34.960Z,31.50
2023-01-19T13:00:08.291Z,36.80
2023-01-19T13:02:46.953Z,32.90
2023-01-19T13:05:24.077Z,34.50
2023-01-19T13:08:19.414Z,36.00
2023-01-19T13:11:16.215Z,34.30
2023-01-19T13:14:04.987Z,23.10
2023-01-19T13:17:02.074Z,32.50
2023-01-19T13:19:42.463Z,34.00
2023-01-19T13:23:02.394Z,35.50
2023-01-19T13:25:35.964Z,36.60
2023-01-19T13:28:12.592Z,35.60
2023-01-19T13:31:03.341Z,34.90
2023-01-19T13:33:41.237Z,34.00
2023-01-19T13:36:21.117Z,34.70
2023-01-19T13:38:52.577Z,34.50
2023-01-19T13:41:26.974Z,35.20
2023-01-19T13:44:01.877Z,35.10
2023-01-19T13:46:33.621Z,37.90
2023-01-19T13:49:10.503Z,36.50
2023-01-19T13:51:40.803Z,35.20
2023-01-19T13:54:17.464Z,37.60
2023-01-19T13:56:50.474Z,36.30
2023-01-19T13:59:21.056Z,37.60
2023-01-19T14:01:54.455Z,35.40
2023-01-19T14:04:30.392Z,34.50
2023-01-19T14:07:02.756Z,41.20
2023-01-19T14:09:33.393Z,44.70
2023-01-19T14:12:10.494Z,42.30
2023-01-19T14:14:41.056Z,41.10
2023-01-19T14:17:23.830Z,42.10
2023-01-19T14:19:55.491Z,38.80
2023-01-19T14:22:40.773Z,37.10
2023-01-19T14:25:30.939Z,41.10
2023-01-19T14:28:28.671Z,39.40
2023-01-19T14:31:00.656Z,37.80
2023-01-19T14:33:42.011Z,38.90
2023-01-19T14:36:24.061Z,42.10
2023-01-19T14:38:55.398Z,36.90
2023-01-19T14:41:30.186Z,42.70
2023-01-19T14:44:01.899Z,40.10
2023-01-19T14:46:32.639Z,37.70
2023-01-19T14:49:05.463Z,40.70
2023-01-19T14:51:36.631Z,41.40
2023-01-19T14:54:12.794Z,41.00
2023-01-19T14:56:44.663Z,42.50
2023-01-19T14:59:15.561Z,43.90
2023-01-19T15:01:46.530Z,44.00
2023-01-19T15:06:47.027Z,42.30
2023-01-19T15:09:17.788Z,42.50
2023-01-19T15:11:49.038Z,45.90
2023-01-19T15:14:21.868Z,40.60
2023-01-19T15:16:52.401Z,40.70
2023-01-19T15:19:22.782Z,42.00
2023-01-19T15:21:59.920Z,42.40
2023-01-19T15:24:30.666Z,41.50
2023-01-19T15:27:02.376Z,39.50
2023-01-19T15:29:33.873Z,38.20
2023-01-19T15:32:04.580Z,41.00
2023-01-19T15:34:37.591Z,35.20
2023-01-19T15:37:08.525Z,33.70
2023-01-19T15:39:39.750Z,37.60
2023-01-19T15:42:15.792Z,40.80
2023-01-19T15:44:46.187Z,35.90
2023-01-19T15:47:16.728Z,35.70
2023-01-19T15:49:47.841Z,32.40
2023-01-19T15:52:19.216Z,36.60
2023-01-19T15:54:52.032Z,41.00
2023-01-19T15:57:25.314Z,42.40
2023-01-19T15:59:59.267Z,42.30
2023-01-19T16:02:34.130Z,38.40
2023-01-19T16:05:05.000Z,35.70
2023-01-19T16:07:36.211Z,37.40
2023-01-19T16:10:09.348Z,31.70
2023-01-19T16:12:40.062Z,39.30
2023-01-19T16:15:12.723Z,41.80
2023-01-19T16:17:44.567Z,34.80
2023-01-19T16:20:15.849Z,38.30
2023-01-19T16:22:46.430Z,39.50
2023-01-19T16:25:17.903Z,39.50
2023-01-19T16:27:48.312Z,38.80
2023-01-19T16:30:19.725Z,34.70
2023-01-19T16:32:50.259Z,39.20
2023-01-19T16:35:20.655Z,40.30
2023-01-19T16:37:52.924Z,42.20
2023-01-19T16:40:23.624Z,33.80
2023-01-19T16:42:54.431Z,39.50
2023-01-19T16:45:25.073Z,38.40
2023-01-19T16:47:55.747Z,42.00
2023-01-19T16:50:26.322Z,43.10
2023-01-19T16:53:05.076Z,47.00
2023-01-19T16:55:45.118Z,42.90
2023-01-19T16:58:17.195Z,43.90
2023-01-19T17:00:47.946Z,44.60
2023-01-19T17:03:18.563Z,43.30
2023-01-19T17:05:58.279Z,42.60
2023-01-19T17:08:28.815Z,44.00
2023-01-19T17:11:02.861Z,43.80
2023-01-19T17:13:33.902Z,42.60
2023-01-19T17:16:05.749Z,44.70
2023-01-19T17:18:38.811Z,39.90
2023-01-19T17:21:10.863Z,42.60
2023-01-19T17:23:45.342Z,41.50
2023-01-19T17:26:16.678Z,42.50
2023-01-19T17:28:48.665Z,42.50
2023-01-19T17:31:21.118Z,40.80
2023-01-19T17:33:51.999Z,40.40
2023-01-19T17:36:25.353Z,43.00
2023-01-19T17:38:58.718Z,41.80
2023-01-19T17:41:31.026Z,39.90
2023-01-19T17:44:03.495Z,32.60
2023-01-19T17:46:37.236Z,30.10
2023-01-19T17:49:08.702Z,41.20
2023-01-19T17:51:39.115Z,42.70
2023-01-19T17:54:10.606Z,40.00
2023-01-19T17:56:41.510Z,41.90
2023-01-19T17:59:12.912Z,36.30
2023-01-19T18:01:45.263Z,37.90
2023-01-19T18:04:16.754Z,39.90
2023-01-19T18:06:49.839Z,28.00
2023-01-19T18:09:22.121Z,38.90
2023-01-19T18:11:54.929Z,41.40
2023-01-19T18:14:26.103Z,39.90
2023-01-19T18:16:57.492Z,45.00
2023-01-19T18:19:29.196Z,40.60
2023-01-19T18:21:59.608Z,39.30
2023-01-19T18:24:30.330Z,37.60
2023-01-19T18:27:04.825Z,37.30
2023-01-19T18:29:36.897Z,41.20
2023-01-19T18:32:08.419Z,41.80
2023-01-19T18:34:40.960Z,40.20
2023-01-19T18:37:15.393Z,38.00
2023-01-19T18:39:46.225Z,42.60
2023-01-19T18:42:16.846Z,42.30
2023-01-19T18:44:47.502Z,39.70
2023-01-19T18:47:18.038Z,42.10
2023-01-19T18:49:48.820Z,42.20
2023-01-19T18:52:19.478Z,38.70
2023-01-19T18:54:50.830Z,38.80
2023-01-19T18:57:21.629Z,41.90
2023-01-19T18:59:53.015Z,38.10
2023-01-19T19:02:24.149Z,40.30
2023-01-19T19:04:54.382Z,34.50
2023-01-19T19:07:27.462Z,37.40
2023-01-19T19:09:57.936Z,39.60
2023-01-19T19:12:28.800Z,37.30
2023-01-19T19:14:59.290Z,39.40
2023-01-19T19:17:31.493Z,26.20
2023-01-19T19:20:02.623Z,37.30
2023-01-19T19:25:02.806Z,37.70
2023-01-19T19:27:33.461Z,38.90
2023-01-19T19:30:04.698Z,39.50
2023-01-19T19:32:35.362Z,37.70
2023-01-19T19:35:08.050Z,36.10
2023-01-19T19:37:38.393Z,37.50
2023-01-19T19:40:11.713Z,32.80
2023-01-19T19:42:44.520Z,37.40
2023-01-19T19:45:15.494Z,39.00
2023-01-19T19:47:46.129Z,36.80
2023-01-19T19:50:17.598Z,41.90
2023-01-19T19:52:49.735Z,40.60
2023-01-19T19:55:20.423Z,40.20
2023-01-19T19:57:51.047Z,37.20
2023-01-19T20:00:22.524Z,34.60
2023-01-19T20:02:53.534Z,41.50
2023-01-19T20:05:24.660Z,36.20
2023-01-19T20:07:54.989Z,38.80
2023-01-19T20:10:26.539Z,35.00
2023-01-19T20:12:56.911Z,35.40
2023-01-19T20:15:29.340Z,36.20
2023-01-19T20:18:00.210Z,38.70
2023-01-19T20:20:30.480Z,39.00
2023-01-19T20:23:01.371Z,39.70
2023-01-19T20:25:31.635Z,37.20
2023-01-19T20:28:02.604Z,39.80
2023-01-19T20:30:33.964Z,39.20
2023-01-19T20:33:05.068Z,37.40
2023-01-19T20:35:35.832Z,38.00
2023-01-19T20:38:09.316Z,38.20
2023-01-19T20:40:40.786Z,35.90
2023-01-19T20:43:12.754Z,37.10
2023-01-19T20:45:44.339Z,37.20
2023-01-19T20:48:15.047Z,38.40
2023-01-19T20:50:45.314Z,38.70
2023-01-19T20:53:16.322Z,36.80
2023-01-19T20:55:46.936Z,39.20
2023-01-19T20:58:17.938Z,37.50
2023-01-19T21:00:48.442Z,39.20
2023-01-19T21:03:20.020Z,37.50
2023-01-19T21:05:50.394Z,38.20
2023-01-19T21:08:20.889Z,39.10
2023-01-19T21:10:51.524Z,38.60
2023-01-19T21:13:22.500Z,33.80
2023-01-19T21:18:22.376Z,29.00
2023-01-19T21:20:53.018Z,30.60
2023-01-19T21:23:23.488Z,30.00
2023-01-19T21:25:56.127Z,28.90
2023-01-19T21:28:27.169Z,27.50
2023-01-19T21:30:58.071Z,28.40
2023-01-19T21:33:28.499Z,27.60
2023-01-19T21:35:59.561Z,28.30
2023-01-19T21:41:05.269Z,24.10
2023-01-19T21:43:38.645Z,23.80
2023-01-19T21:46:13.478Z,29.40
2023-01-19T21:48:46.945Z,27.80
2023-01-19T21:51:17.851Z,26.10
2023-01-19T21:56:18.000Z,25.50
2023-01-19T21:58:48.425Z,29.00
2023-01-19T22:01:19.469Z,26.40
2023-01-19T22:06:19.582Z,24.70
2023-01-19T22:08:50.004Z,28.80
2023-01-19T22:11:21.434Z,26.10
2023-01-19T22:13:52.053Z,29.80
2023-01-19T22:18:56.026Z,24.70
2023-01-19T22:21:27.207Z,24.70
2023-01-19T22:23:59.972Z,26.50
2023-01-19T22:26:31.651Z,24.10
2023-01-19T22:29:03.148Z,24.00
2023-01-19T22:31:33.598Z,22.10
2023-01-19T22:34:04.016Z,23.70
2023-01-19T22:36:34.765Z,25.20
2023-01-19T22:39:06.894Z,24.60
2023-01-19T22:41:39.274Z,25.50
2023-01-19T22:44:14.113Z,24.00
2023-01-19T22:46:46.329Z,22.50
2023-01-19T22:49:17.539Z,22.20
2023-01-19T22:51:48.424Z,22.80
2023-01-19T22:56:48.164Z,23.90
2023-01-19T22:59:18.767Z,24.70
2023-01-19T23:01:51.254Z,22.80
2023-01-19T23:04:21.767Z,30.10
2023-01-19T23:06:53.208Z,24.60
2023-01-19T23:09:23.966Z,24.20
2023-01-19T23:11:54.216Z,22.70
2023-01-19T23:14:24.682Z,22.70
2023-01-19T23:16:57.917Z,25.20
2023-01-19T23:19:28.187Z,24.10
2023-01-19T23:21:58.723Z,24.00
2023-01-19T23:24:30.200Z,25.90
2023-01-19T23:27:02.276Z,25.50
2023-01-19T23:29:32.679Z,25.00
2023-01-19T23:32:03.417Z,23.80
2023-01-19T23:34:34.245Z,23.10
2023-01-19T23:37:05.112Z,24.30
2023-01-19T23:42:05.348Z,21.30
2023-01-19T23:47:04.799Z,21.80
2023-01-19T23:49:34.950Z,24.90
2023-01-19T23:52:05.600Z,22.20
2023-01-19T23:54:36.420Z,22.80
2023-01-19T23:57:06.660Z,24.80
2023-01-19T23:59:37.051Z,23.20
